createdAt,value
2023-03-12T00:00:28.593Z,15.10
2023-03-12T00:02:57.768Z,15.00
2023-03-12T00:05:28.397Z,15.10
2023-03-12T00:08:00.158Z,15.00
2023-03-12T00:10:29.696Z,14.90
2023-03-12T00:12:57.487Z,14.90
2023-03-12T00:15:25.420Z,14.90
2023-03-12T00:17:53.339Z,14.90
2023-03-12T00:20:22.550Z,14.80
2023-03-12T00:22:51.049Z,14.80
2023-03-12T00:25:19.514Z,14.80
2023-03-12T00:27:47.344Z,14.70
2023-03-12T00:30:15.686Z,14.70
2023-03-12T00:32:43.576Z,14.80
2023-03-12T00:35:11.682Z,14.80
2023-03-12T00:37:39.813Z,14.90
2023-03-12T00:40:10.010Z,14.90
2023-03-12T00:42:37.805Z,14.90
2023-03-12T00:45:05.778Z,15.00
2023-03-12T00:47:33.857Z,15.10
2023-03-12T00:50:01.584Z,15.10
2023-03-12T00:52:29.257Z,15.30
2023-03-12T00:54:59.261Z,15.40
2023-03-12T00:57:28.456Z,15.40
2023-03-12T00:59:56.393Z,15.40
2023-03-12T01:02:24.347Z,15.40
2023-03-12T01:04:52.095Z,15.40
2023-03-12T01:07:19.983Z,15.40
2023-03-12T01:09:47.717Z,15.40
2023-03-12T01:12:15.543Z,15.40
2023-03-12T01:14:44.136Z,15.40
2023-03-12T01:17:12.134Z,15.40
2023-03-12T01:19:40.181Z,15.40
2023-03-12T01:22:07.951Z,15.40
2023-03-12T01:24:35.721Z,15.40
2023-03-12T01:27:04.034Z,15.30
2023-03-12T01:29:31.761Z,15.40
2023-03-12T01:31:59.896Z,15.30
2023-03-12T01:34:27.621Z,15.40
2023-03-12T01:36:55.754Z,15.40
2023-03-12T01:39:23.991Z,15.40
2023-03-12T01:41:52.178Z,15.30
2023-03-12T01:44:20.063Z,15.30
2023-03-12T01:46:48.376Z,15.40
2023-03-12T01:49:30.633Z,15.30
2023-03-12T01:52:06.742Z,15.30
2023-03-12T01:54:45.820Z,15.20
2023-03-12T01:57:19.604Z,15.20
2023-03-12T01:59:59.505Z,15.20
2023-03-12T02:02:30.312Z,15.20
2023-03-12T02:05:38.867Z,15.20
2023-03-12T02:08:07.014Z,15.20
2023-03-12T02:10:34.886Z,15.20
2023-03-12T02:13:03.355Z,15.30
2023-03-12T02:15:32.834Z,15.40
2023-03-12T02:18:03.870Z,15.60
2023-03-12T02:20:56.101Z,15.70
2023-03-12T02:23:47.389Z,15.90
2023-03-12T02:26:20.746Z,16.10
2023-03-12T02:28:51.730Z,16.20
2023-03-12T02:31:24.906Z,16.20
2023-03-12T02:33:56.933Z,16.20
2023-03-12T02:36:25.947Z,16.20
2023-03-12T02:38:55.458Z,16.20
2023-03-12T02:41:27.768Z,16.30
2023-03-12T02:44:18.463Z,16.30
2023-03-12T02:46:58.375Z,16.30
2023-03-12T02:49:30.483Z,16.30
2023-03-12T02:52:01.091Z,16.30
2023-03-12T02:54:30.430Z,16.40
2023-03-12T02:56:58.981Z,16.40
2023-03-12T02:59:29.776Z,16.50
2023-03-12T03:02:01.907Z,16.50
2023-03-12T03:04:32.057Z,16.60
2023-03-12T03:07:00.744Z,16.60
2023-03-12T03:09:28.867Z,16.60
2023-03-12T03:11:57.288Z,16.60
2023-03-12T03:14:27.277Z,16.50
2023-03-12T03:16:56.486Z,16.40
2023-03-12T03:19:24.812Z,16.40
2023-03-12T03:21:53.046Z,16.40
2023-03-12T03:24:22.071Z,16.40
2023-03-12T03:26:52.377Z,16.40
2023-03-12T03:29:20.900Z,16.30
2023-03-12T03:31:49.325Z,16.30
2023-03-12T03:34:22.464Z,16.50
2023-03-12T03:36:51.828Z,16.60
2023-03-12T03:39:21.623Z,16.60
2023-03-12T03:41:52.053Z,16.70
2023-03-12T03:44:24.560Z,16.70
2023-03-12T03:46:58.593Z,16.70
2023-03-12T03:49:27.376Z,16.60
2023-03-12T03:51:55.742Z,16.70
2023-03-12T03:54:31.715Z,16.60
2023-03-12T03:57:01.282Z,16.60
2023-03-12T03:59:29.527Z,16.60
2023-03-12T04:01:59.473Z,16.60
2023-03-12T04:04:27.757Z,16.60
2023-03-12T04:06:55.749Z,16.60
2023-03-12T04:09:24.050Z,16.60
2023-03-12T04:11:53.489Z,16.60
2023-03-12T04:14:24.859Z,16.50
2023-03-12T04:16:53.758Z,16.40
2023-03-12T04:19:22.221Z,16.30
2023-03-12T04:21:53.745Z,16.20
2023-03-12T04:24:21.684Z,16.10
2023-03-12T04:26:52.362Z,16.00
2023-03-12T04:29:21.007Z,16.00
2023-03-12T04:31:49.052Z,15.90
2023-03-12T04:34:17.401Z,15.80
2023-03-12T04:36:49.471Z,15.70
2023-03-12T04:39:20.497Z,15.70
2023-03-12T04:41:51.249Z,15.60
2023-03-12T04:44:20.010Z,15.60
2023-03-12T04:46:48.359Z,15.50
2023-03-12T04:49:20.372Z,15.50
2023-03-12T04:51:48.704Z,15.70
2023-03-12T04:54:16.824Z,15.60
2023-03-12T04:56:45.455Z,15.60
2023-03-12T04:59:14.714Z,15.50
2023-03-12T05:01:47.768Z,15.50
2023-03-12T05:04:21.590Z,15.50
2023-03-12T05:06:51.934Z,15.60
2023-03-12T05:09:20.163Z,15.70
2023-03-12T05:11:48.888Z,15.80
2023-03-12T05:14:20.180Z,15.90
2023-03-12T05:16:49.931Z,16.00
2023-03-12T05:19:18.602Z,16.10
2023-03-12T05:21:47.366Z,16.10
2023-03-12T05:24:16.961Z,16.20
2023-03-12T05:26:45.477Z,16.20
2023-03-12T05:29:17.977Z,16.30
2023-03-12T05:31:46.239Z,16.30
2023-03-12T05:34:15.275Z,16.40
2023-03-12T05:36:46.566Z,16.40
2023-03-12T05:39:19.116Z,16.50
2023-03-12T05:41:48.523Z,16.40
2023-03-12T05:44:19.616Z,16.40
2023-03-12T05:46:53.124Z,16.40
2023-03-12T05:49:24.640Z,16.30
2023-03-12T05:51:53.884Z,16.30
2023-03-12T05:54:24.594Z,16.20
2023-03-12T05:56:54.007Z,16.10
2023-03-12T05:59:24.039Z,16.10
2023-03-12T06:01:53.702Z,16.10
2023-03-12T06:04:21.988Z,16.10
2023-03-12T06:06:50.192Z,16.20
2023-03-12T06:09:18.096Z,16.30
2023-03-12T06:11:46.392Z,16.40
2023-03-12T06:14:15.149Z,16.40
2023-03-12T06:16:43.195Z,16.50
2023-03-12T06:19:14.461Z,16.60
2023-03-12T06:21:44.707Z,16.70
2023-03-12T06:24:13.434Z,16.90
2023-03-12T06:26:45.723Z,16.90
2023-03-12T06:29:13.658Z,16.90
2023-03-12T06:31:42.469Z,16.90
2023-03-12T06:34:10.787Z,16.80
2023-03-12T06:36:39.185Z,16.80
2023-03-12T06:39:07.086Z,16.70
2023-03-12T06:41:35.323Z,16.70
2023-03-12T06:44:06.751Z,16.60
2023-03-12T06:46:34.963Z,16.50
2023-03-12T06:49:02.985Z,16.50
2023-03-12T06:51:31.539Z,16.40
2023-03-12T06:54:02.721Z,16.40
2023-03-12T06:56:31.664Z,16.40
2023-03-12T06:59:03.131Z,16.40
2023-03-12T07:01:31.164Z,16.50
2023-03-12T07:03:58.986Z,16.70
2023-03-12T07:06:26.802Z,16.80
2023-03-12T07:08:54.613Z,17.00
2023-03-12T07:11:22.525Z,17.10
2023-03-12T07:13:53.232Z,17.30
2023-03-12T07:16:21.162Z,17.40
2023-03-12T07:18:48.929Z,17.60
2023-03-12T07:21:23.271Z,17.70
2023-03-12T07:23:52.044Z,18.00
2023-03-12T07:26:20.271Z,18.10
2023-03-12T07:28:48.190Z,18.20
2023-03-12T07:31:16.008Z,18.10
2023-03-12T07:33:43.870Z,18.10
2023-03-12T07:36:11.862Z,18.00
2023-03-12T07:38:39.755Z,18.10
2023-03-12T07:41:07.892Z,18.30
2023-03-12T07:43:35.957Z,18.40
2023-03-12T07:46:03.702Z,18.40
2023-03-12T07:48:31.806Z,18.50
2023-03-12T07:50:59.759Z,18.50
2023-03-12T07:53:27.814Z,18.40
2023-03-12T07:55:55.930Z,18.40
2023-03-12T07:58:24.196Z,18.50
2023-03-12T08:00:54.278Z,18.80
2023-03-12T08:03:22.126Z,19.20
2023-03-12T08:06:01.926Z,19.30
2023-03-12T08:08:31.078Z,19.60
2023-03-12T08:11:00.704Z,19.90
2023-03-12T08:13:28.898Z,20.10
2023-03-12T08:15:57.040Z,20.20
2023-03-12T08:18:25.298Z,20.30
2023-03-12T08:20:54.948Z,20.70
2023-03-12T08:23:23.335Z,20.90
2023-03-12T08:25:51.765Z,21.20
2023-03-12T08:28:21.529Z,21.40
2023-03-12T08:30:55.341Z,21.60
2023-03-12T08:33:23.740Z,21.70
2023-03-12T08:35:51.601Z,21.80
2023-03-12T08:38:19.639Z,21.80
2023-03-12T08:40:47.718Z,22.00
2023-03-12T08:43:15.570Z,22.10
2023-03-12T08:45:43.321Z,22.10
2023-03-12T08:48:11.483Z,22.30
2023-03-12T08:50:40.747Z,22.40
2023-03-12T08:53:08.965Z,22.40
2023-03-12T08:55:36.934Z,22.40
2023-03-12T08:58:04.976Z,22.30
2023-03-12T09:00:32.993Z,22.20
2023-03-12T09:03:01.636Z,21.80
2023-03-12T09:05:32.666Z,21.70
2023-03-12T09:08:00.852Z,22.00
2023-03-12T09:10:30.902Z,22.30
2023-03-12T09:12:59.758Z,22.60
2023-03-12T09:15:28.414Z,22.80
2023-03-12T09:17:56.735Z,22.70
2023-03-12T09:20:25.942Z,22.80
2023-03-12T09:22:54.162Z,23.00
2023-03-12T09:25:23.701Z,23.10
2023-03-12T09:27:51.824Z,23.40
2023-03-12T09:30:21.734Z,23.80
2023-03-12T09:32:49.978Z,24.40
2023-03-12T09:35:17.975Z,24.60
2023-03-12T09:37:50.374Z,25.00
2023-03-12T09:40:23.474Z,25.30
2023-03-12T09:42:55.396Z,25.80
2023-03-12T09:45:26.834Z,26.10
2023-03-12T09:47:58.404Z,26.50
2023-03-12T09:50:44.097Z,26.80
2023-03-12T09:53:50.865Z,26.60
2023-03-12T09:56:21.652Z,26.70
2023-03-12T09:58:54.845Z,26.80
2023-03-12T10:01:42.675Z,27.10
2023-03-12T10:04:22.080Z,27.40
2023-03-12T10:07:11.681Z,27.40
2023-03-12T10:09:55.218Z,26.90
2023-03-12T10:12:30.757Z,26.10
2023-03-12T10:15:28.750Z,25.70
2023-03-12T10:18:09.395Z,26.10
2023-03-12T10:21:01.339Z,26.10
2023-03-12T10:23:55.752Z,25.80
2023-03-12T10:26:27.194Z,25.10
2023-03-12T10:29:19.300Z,24.20
2023-03-12T10:32:03.757Z,23.80
2023-03-12T10:34:43.298Z,24.70
2023-03-12T10:37:32.554Z,25.80
2023-03-12T10:40:05.431Z,26.90
2023-03-12T10:42:33.844Z,27.40
2023-03-12T10:45:32.607Z,27.90
2023-03-12T10:48:09.068Z,27.00
2023-03-12T10:50:40.313Z,25.50
2023-03-12T10:53:36.147Z,24.60
2023-03-12T10:56:16.081Z,23.80
2023-03-12T10:58:53.344Z,23.30
2023-03-12T11:01:30.917Z,23.30
2023-03-12T11:04:19.307Z,23.10
2023-03-12T11:07:07.544Z,24.10
2023-03-12T11:09:35.851Z,25.90
2023-03-12T11:12:22.946Z,27.20
2023-03-12T11:14:51.300Z,27.90
2023-03-12T11:17:33.237Z,28.40
2023-03-12T11:20:19.174Z,29.00
2023-03-12T11:22:47.235Z,29.40
2023-03-12T11:25:29.406Z,29.60
2023-03-12T11:28:03.561Z,30.20
2023-03-12T11:30:37.694Z,30.20
2023-03-12T11:33:06.705Z,30.80
2023-03-12T11:35:46.036Z,31.30
2023-03-12T11:38:42.207Z,31.50
2023-03-12T11:41:21.934Z,31.40
2023-03-12T11:44:04.803Z,31.90
2023-03-12T11:47:10.407Z,32.00
2023-03-12T11:49:43.943Z,31.80
2023-03-12T11:52:20.598Z,32.20
2023-03-12T11:54:55.436Z,32.40
2023-03-12T11:57:31.318Z,32.40
2023-03-12T12:00:24.369Z,32.90
2023-03-12T12:03:26.148Z,33.30
2023-03-12T12:06:22.807Z,33.70
2023-03-12T12:09:09.196Z,33.50
2023-03-12T12:12:07.353Z,33.60
2023-03-12T12:15:18.761Z,34.00
2023-03-12T12:18:21.558Z,33.30
2023-03-12T12:21:08.570Z,32.90
2023-03-12T12:23:36.505Z,33.20
2023-03-12T12:26:14.634Z,32.80
2023-03-12T12:28:48.202Z,32.30
2023-03-12T12:31:25.860Z,30.70
2023-03-12T12:34:30.803Z,29.50
2023-03-12T12:37:42.041Z,29.60
2023-03-12T12:40:34.770Z,29.10
2023-03-12T12:43:15.208Z,28.60
2023-03-12T12:45:44.716Z,27.90
2023-03-12T12:48:27.740Z,28.20
2023-03-12T12:51:00.542Z,29.00
2023-03-12T12:53:38.661Z,30.20
2023-03-12T12:56:06.538Z,30.30
2023-03-12T12:58:55.374Z,30.40
2023-03-12T13:01:26.497Z,31.00
2023-03-12T13:04:02.937Z,31.10
2023-03-12T13:06:55.407Z,30.10
2023-03-12T13:09:35.950Z,29.30
2023-03-12T13:12:44.601Z,28.70
2023-03-12T13:15:40.768Z,29.70
2023-03-12T13:18:23.314Z,30.80
2023-03-12T13:20:53.972Z,31.80
2023-03-12T13:23:38.624Z,31.30
2023-03-12T13:26:29.141Z,31.00
2023-03-12T13:29:13.130Z,31.30
2023-03-12T13:31:43.080Z,32.50
2023-03-12T13:34:19.723Z,32.10
2023-03-12T13:36:51.844Z,30.80
2023-03-12T13:39:32.504Z,29.10
2023-03-12T13:42:02.925Z,29.70
2023-03-12T13:44:49.061Z,30.40
2023-03-12T13:47:42.609Z,31.10
2023-03-12T13:50:17.580Z,32.10
2023-03-12T13:53:03.661Z,32.30
2023-03-12T13:55:34.401Z,31.60
2023-03-12T13:58:10.056Z,31.40
2023-03-12T14:01:02.881Z,30.40
2023-03-12T14:03:40.481Z,28.80
2023-03-12T14:06:15.439Z,27.50
2023-03-12T14:09:13.985Z,26.50
2023-03-12T14:11:53.113Z,25.40
2023-03-12T14:14:26.789Z,24.80
2023-03-12T14:17:01.713Z,24.50
2023-03-12T14:19:33.347Z,24.60
2023-03-12T14:22:08.356Z,24.80
2023-03-12T14:24:41.410Z,24.80
2023-03-12T14:27:20.644Z,24.60
2023-03-12T14:30:12.525Z,24.70
2023-03-12T14:32:43.241Z,25.30
2023-03-12T14:35:22.547Z,25.50
2023-03-12T14:38:16.229Z,26.00
2023-03-12T14:41:02.465Z,27.90
2023-03-12T14:43:33.914Z,29.60
2023-03-12T14:46:14.832Z,31.10
2023-03-12T14:48:44.015Z,33.00
2023-03-12T14:51:27.307Z,33.60
2023-03-12T14:53:56.574Z,33.70
2023-03-12T14:56:35.362Z,32.50
2023-03-12T14:59:24.316Z,31.30
2023-03-12T15:02:00.454Z,31.70
2023-03-12T15:04:29.840Z,30.50
2023-03-12T15:07:03.701Z,29.60
2023-03-12T15:09:35.345Z,29.30
2023-03-12T15:12:07.111Z,29.20
2023-03-12T15:14:39.845Z,29.90
2023-03-12T15:17:09.090Z,30.20
2023-03-12T15:19:40.705Z,31.20
2023-03-12T15:22:15.591Z,30.80
2023-03-12T15:24:44.530Z,31.80
2023-03-12T15:27:41.933Z,32.00
2023-03-12T15:30:27.979Z,31.00
2023-03-12T15:33:15.856Z,29.20
2023-03-12T15:36:02.012Z,28.00
2023-03-12T15:38:33.452Z,28.00
2023-03-12T15:41:12.506Z,28.30
2023-03-12T15:43:46.462Z,29.10
2023-03-12T15:46:17.995Z,29.60
2023-03-12T15:48:53.057Z,28.90
2023-03-12T15:51:31.799Z,28.00
2023-03-12T15:54:22.033Z,27.60
2023-03-12T15:56:50.312Z,27.80
2023-03-12T15:59:25.858Z,27.70
2023-03-12T16:01:56.026Z,28.10
2023-03-12T16:04:24.968Z,28.70
2023-03-12T16:06:53.909Z,29.50
2023-03-12T16:09:25.247Z,29.20
2023-03-12T16:11:55.438Z,28.80
2023-03-12T16:14:30.695Z,29.00
2023-03-12T16:16:58.967Z,28.30
2023-03-12T16:19:30.387Z,27.60
2023-03-12T16:21:58.358Z,26.90
2023-03-12T16:24:26.288Z,26.30
2023-03-12T16:27:00.772Z,25.90
2023-03-12T16:29:35.101Z,25.50
2023-03-12T16:32:10.110Z,25.00
2023-03-12T16:34:38.331Z,24.30
2023-03-12T16:37:06.856Z,23.60
2023-03-12T16:39:34.785Z,23.00
2023-03-12T16:42:03.832Z,22.50
2023-03-12T16:44:35.182Z,22.00
2023-03-12T16:47:04.383Z,21.50
2023-03-12T16:49:32.378Z,21.10
2023-03-12T16:52:00.693Z,20.90
2023-03-12T16:54:28.698Z,20.70
2023-03-12T16:56:56.831Z,20.50
2023-03-12T16:59:28.258Z,20.40
2023-03-12T17:01:57.531Z,20.10
2023-03-12T17:04:25.436Z,20.00
2023-03-12T17:06:53.209Z,19.80
2023-03-12T17:09:21.104Z,19.30
2023-03-12T17:11:52.328Z,18.70
2023-03-12T17:14:22.724Z,18.40
2023-03-12T17:16:50.978Z,18.30
2023-03-12T17:19:19.155Z,18.20
2023-03-12T17:21:48.335Z,18.10
2023-03-12T17:24:16.356Z,18.10
2023-03-12T17:26:45.856Z,18.00
2023-03-12T17:29:14.545Z,17.70
2023-03-12T17:31:42.510Z,17.60
2023-03-12T17:34:10.292Z,17.60
2023-03-12T17:36:38.878Z,17.30
2023-03-12T17:39:06.562Z,17.10
2023-03-12T17:41:34.666Z,17.00
2023-03-12T17:44:04.147Z,16.80
2023-03-12T17:46:32.383Z,16.80
2023-03-12T17:49:00.548Z,16.80
2023-03-12T17:51:28.485Z,16.60
2023-03-12T17:53:56.501Z,16.60
2023-03-12T17:56:24.480Z,16.50
2023-03-12T17:58:52.519Z,16.40
2023-03-12T18:01:20.523Z,16.30
2023-03-12T18:03:50.421Z,16.20
2023-03-12T18:06:19.862Z,16.00
2023-03-12T18:08:47.865Z,15.90
2023-03-12T18:11:15.964Z,15.90
2023-03-12T18:13:44.029Z,15.90
2023-03-12T18:16:12.040Z,16.00
2023-03-12T18:18:39.919Z,16.00
2023-03-12T18:21:07.969Z,16.10
2023-03-12T18:23:36.144Z,16.00
2023-03-12T18:26:04.860Z,15.90
2023-03-12T18:28:32.909Z,15.90
2023-03-12T18:31:01.103Z,15.90
2023-03-12T18:33:31.130Z,15.80
2023-03-12T18:35:59.282Z,15.80
2023-03-12T18:38:27.216Z,15.70
2023-03-12T18:41:07.582Z,15.70
2023-03-12T18:43:36.143Z,15.50
2023-03-12T18:46:04.397Z,15.50
2023-03-12T18:48:32.920Z,15.50
2023-03-12T18:51:00.810Z,15.50
2023-03-12T18:53:29.347Z,15.40
2023-03-12T18:55:58.699Z,15.40
2023-03-12T18:58:28.674Z,15.40
2023-03-12T19:00:58.779Z,15.30
2023-03-12T19:03:27.355Z,15.30
2023-03-12T19:06:07.292Z,15.20
2023-03-12T19:08:37.539Z,15.20
2023-03-12T19:11:07.599Z,15.20
2023-03-12T19:13:35.976Z,15.10
2023-03-12T19:16:09.221Z,15.00
2023-03-12T19:18:38.462Z,15.00
2023-03-12T19:21:08.678Z,15.00
2023-03-12T19:23:36.954Z,15.00
2023-03-12T19:26:08.802Z,14.90
2023-03-12T19:28:37.561Z,14.90
2023-03-12T19:31:09.955Z,14.80
2023-03-12T19:33:38.517Z,14.80
2023-03-12T19:36:09.694Z,14.60
2023-03-12T19:38:37.736Z,14.60
2023-03-12T19:41:09.085Z,14.60
2023-03-12T19:43:38.531Z,14.50
2023-03-12T19:46:06.890Z,14.60
2023-03-12T19:48:35.291Z,14.50
2023-03-12T19:51:08.062Z,14.50
2023-03-12T19:53:36.310Z,14.50
2023-03-12T19:56:05.024Z,14.40
2023-03-12T19:58:33.288Z,14.40
2023-03-12T20:01:02.357Z,14.40
2023-03-12T20:03:32.164Z,14.40
2023-03-12T20:06:00.356Z,14.40
2023-03-12T20:08:32.078Z,14.40
2023-03-12T20:11:09.251Z,14.40
2023-03-12T20:13:40.370Z,14.40
2023-03-12T20:16:09.267Z,14.40
2023-03-12T20:18:40.038Z,14.40
2023-03-12T20:21:08.070Z,14.40
2023-03-12T20:23:36.022Z,14.40
2023-03-12T20:26:04.249Z,14.20
2023-03-12T20:28:32.051Z,14.20
2023-03-12T20:31:08.923Z,14.10
2023-03-12T20:33:37.109Z,14.20
2023-03-12T20:36:09.871Z,14.30
2023-03-12T20:38:37.963Z,14.20
2023-03-12T20:41:11.254Z,14.30
2023-03-12T20:43:39.628Z,14.30
2023-03-12T20:46:07.645Z,14.30
2023-03-12T20:48:35.999Z,14.30
2023-03-12T20:51:04.432Z,14.30
2023-03-12T20:53:32.369Z,14.10
2023-03-12T20:56:00.335Z,14.10
2023-03-12T21:14:28.215Z,14.10
2023-03-12T21:16:56.598Z,13.80
2023-03-12T21:19:24.755Z,13.80
2023-03-12T21:21:52.741Z,13.90
2023-03-12T21:24:20.599Z,13.90
2023-03-12T21:26:48.682Z,13.90
2023-03-12T21:29:16.565Z,13.90
2023-03-12T21:31:44.754Z,13.90
2023-03-12T21:34:12.725Z,13.80
2023-03-12T21:36:40.947Z,13.80
2023-03-12T21:39:08.820Z,13.90
2023-03-12T21:41:37.420Z,13.90
2023-03-12T21:44:08.121Z,14.00
2023-03-12T21:46:36.207Z,13.90
2023-03-12T21:49:04.468Z,14.00
2023-03-12T21:51:32.908Z,14.00
2023-03-12T21:54:00.964Z,14.00
2023-03-12T21:56:31.166Z,14.00
2023-03-12T21:58:59.517Z,13.90
2023-03-12T22:01:30.868Z,13.80
2023-03-12T22:04:01.602Z,13.70
2023-03-12T22:06:29.896Z,13.70
2023-03-12T22:08:58.589Z,13.70
2023-03-12T22:11:26.867Z,13.70
2023-03-12T22:13:54.876Z,13.80
2023-03-12T22:16:23.086Z,13.90
2023-03-12T22:18:51.073Z,13.80
2023-03-12T22:21:23.473Z,13.90
2023-03-12T22:23:53.311Z,13.90
2023-03-12T22:26:23.081Z,13.90
2023-03-12T22:28:53.849Z,13.80
2023-03-12T22:31:23.153Z,13.70
2023-03-12T22:33:51.307Z,13.70
2023-03-12T22:36:23.660Z,13.60
2023-03-12T22:38:51.690Z,13.60
2023-03-12T22:41:24.169Z,13.50
2023-03-12T22:43:54.300Z,13.50
2023-03-12T22:46:25.545Z,13.50
2023-03-12T22:49:00.281Z,13.50
2023-03-12T22:51:30.469Z,13.40
2023-03-12T22:53:58.755Z,13.30
2023-03-12T22:56:29.870Z,13.30
2023-03-12T22:58:58.019Z,13.30
2023-03-12T23:01:26.223Z,13.30
2023-03-12T23:03:54.583Z,13.30
2023-03-12T23:06:25.940Z,13.40
2023-03-12T23:08:58.206Z,13.40
2023-03-12T23:11:28.744Z,13.50
2023-03-12T23:13:57.080Z,13.40
2023-03-12T23:16:26.891Z,13.40
2023-03-12T23:18:57.149Z,13.40
2023-03-12T23:21:26.079Z,13.50
2023-03-12T23:23:54.718Z,13.40
2023-03-12T23:26:26.961Z,13.50
2023-03-12T23:28:59.538Z,13.50
2023-03-12T23:31:29.764Z,13.50
2023-03-12T23:34:00.776Z,13.50
2023-03-12T23:36:31.239Z,13.50
2023-03-12T23:39:05.010Z,13.50
2023-03-12T23:41:33.300Z,13.50
2023-03-12T23:44:01.581Z,13.50
2023-03-12T23:46:29.913Z,13.50
2023-03-12T23:48:58.979Z,13.40
2023-03-12T23:51:32.477Z,13.40
2023-03-12T23:54:02.321Z,13.50
2023-03-12T23:56:36.779Z,13.40
2023-03-12T23:59:10.827Z,13.40
